Pagrindinis puslapis
METAR-TAF:

METAR-TAF

Oro uostai :

Šel Mera, Ekvadoras

platuma: 01-30-19S, ilguma: 078-03-46W, Aukštis: 1056 m

Dabartinis oras

Ataskaita buvo paskelbta 2 valandos ir 48 minutes, ne 23:00 UTC
Ramus vėjas
Temperatūra 21°C
Drėgmė 83%
Slėgis 1016 hPa
Matomumas 10 km arba daugiau
Su prošvaistėmis ne aukštis 2300 ft
Su prošvaistėmis ne aukštis 10000 ft
Liūtis kaimynystėje

METAR: SESM 162300Z 00000KT 9999 VCSH BKN023 BKN100 21/18 Q1016 RMK A3003

Laikas: 20:48 (01:48 UTC)


TAF: trūkstamas

Orai ataskaitas ir orų prognozės (METAR, TAF).

turimą stotys yra geltonos ir raudonos taškus žemėlapyje.

Perkelti pele per norėdami pamatyti stoties vardą.

Tada spustelėkite, norėdami matyti oro stebėjimo ir prognozės.

Norėdami pakeisti žemėlapį: spustelėkite ant žalios mygtukų su juodo kryžiaus žemyn,; žalią mygtuką su brūkšneliu, jei norite nutolinti; arba žalių rodyklių gretimoms žemėlapius.


METAR-TAF: